createdAt,value
2018-07-26T00:01:26.701Z,4.27
2018-07-26T00:03:54.963Z,4.50
2018-07-26T00:06:23.235Z,4.63
2018-07-26T00:08:51.508Z,5.10
2018-07-26T00:11:19.687Z,4.67
2018-07-26T00:13:47.970Z,4.77
2018-07-26T00:16:16.239Z,5.03
2018-07-26T00:18:44.631Z,5.00
2018-07-26T00:21:12.906Z,5.27
2018-07-26T00:23:41.146Z,4.40
2018-07-26T00:26:09.658Z,4.40
2018-07-26T00:28:37.915Z,4.07
2018-07-26T00:31:06.314Z,4.63
2018-07-26T00:33:34.584Z,4.67
2018-07-26T00:36:02.841Z,5.00
2018-07-26T00:38:30.766Z,5.00
2018-07-26T00:40:59.024Z,5.10
2018-07-26T00:43:27.257Z,4.50
2018-07-26T00:45:55.422Z,4.40
2018-07-26T00:48:23.713Z,4.53
2018-07-26T00:50:51.989Z,4.53
2018-07-26T00:53:20.366Z,4.80
2018-07-26T00:55:48.653Z,5.33
2018-07-26T00:58:16.918Z,5.53
2018-07-26T01:00:45.098Z,5.20
2018-07-26T01:03:13.569Z,4.80
2018-07-26T01:05:41.853Z,4.83
2018-07-26T01:08:10.238Z,5.03
2018-07-26T01:10:38.509Z,4.80
2018-07-26T01:13:06.789Z,6.10
2018-07-26T01:15:35.162Z,4.80
2018-07-26T01:18:03.546Z,5.20
2018-07-26T01:20:32.009Z,5.30
2018-07-26T01:23:00.295Z,5.40
2018-07-26T01:25:28.358Z,5.13
2018-07-26T01:27:56.741Z,5.27
2018-07-26T01:30:25.222Z,5.60
2018-07-26T01:32:53.604Z,5.50
2018-07-26T01:35:21.978Z,5.23
2018-07-26T01:37:50.354Z,5.70
2018-07-26T01:40:18.521Z,5.37
2018-07-26T01:43:56.323Z,4.90
2018-07-26T01:46:25.680Z,5.10
2018-07-26T01:48:54.016Z,5.80
2018-07-26T01:51:22.389Z,5.93
2018-07-26T01:53:50.657Z,5.30
2018-07-26T01:56:19.137Z,5.30
2018-07-26T01:58:47.618Z,6.10
2018-07-26T02:01:15.992Z,5.20
2018-07-26T02:03:44.382Z,5.70
2018-07-26T02:06:12.554Z,5.33
2018-07-26T02:08:40.942Z,5.90
2018-07-26T02:11:09.001Z,5.53
2018-07-26T02:13:37.382Z,6.00
2018-07-26T02:16:05.749Z,5.37
2018-07-26T02:18:34.237Z,5.47
2018-07-26T02:21:02.718Z,5.70
2018-07-26T02:23:31.197Z,5.33
2018-07-26T02:25:59.452Z,5.97
2018-07-26T02:28:27.742Z,5.37
2018-07-26T02:30:56.221Z,5.90
2018-07-26T02:33:24.401Z,5.50
2018-07-26T02:35:52.876Z,5.57
2018-07-26T02:38:21.046Z,5.47
2018-07-26T02:40:49.428Z,6.00
2018-07-26T02:43:17.717Z,5.17
2018-07-26T02:45:45.986Z,5.43
2018-07-26T02:48:14.262Z,5.70
2018-07-26T02:50:42.402Z,6.03
2018-07-26T02:53:10.709Z,5.90
2018-07-26T02:55:39.086Z,6.27
2018-07-26T02:58:07.550Z,5.93
2018-07-26T03:00:35.842Z,6.03
2018-07-26T03:03:04.220Z,5.70
2018-07-26T03:05:32.598Z,5.77
2018-07-26T03:08:00.876Z,5.93
2018-07-26T03:10:29.242Z,6.10
2018-07-26T03:12:57.126Z,5.13
2018-07-26T03:15:25.595Z,5.83
2018-07-26T03:17:53.771Z,5.63
2018-07-26T03:20:21.941Z,5.83
2018-07-26T03:22:50.210Z,5.20
2018-07-26T03:25:18.502Z,5.40
2018-07-26T03:27:46.766Z,5.90
2018-07-26T03:30:15.133Z,5.90
2018-07-26T03:32:43.317Z,5.83
2018-07-26T03:35:11.697Z,5.47
2018-07-26T03:37:40.074Z,5.80
2018-07-26T03:40:08.454Z,6.13
2018-07-26T03:42:36.832Z,5.80
2018-07-26T03:45:05.297Z,6.03
2018-07-26T03:47:33.677Z,5.60
2018-07-26T03:50:01.969Z,6.20
2018-07-26T03:52:30.229Z,6.57
2018-07-26T03:54:58.523Z,6.17
2018-07-26T03:57:26.889Z,6.40
2018-07-26T03:59:55.151Z,6.40
2018-07-26T04:02:23.442Z,6.23
2018-07-26T04:04:51.719Z,6.00
2018-07-26T04:07:19.615Z,7.23
2018-07-26T04:09:47.852Z,6.73
2018-07-26T04:12:16.131Z,6.67
2018-07-26T04:14:44.298Z,6.93
2018-07-26T04:17:12.587Z,6.57
2018-07-26T04:19:40.848Z,6.60
2018-07-26T04:22:09.338Z,7.07
2018-07-26T04:24:37.550Z,7.57
2018-07-26T04:27:05.892Z,6.33
2018-07-26T04:29:34.260Z,6.93
2018-07-26T04:32:02.684Z,8.03
2018-07-26T04:34:31.018Z,7.37
2018-07-26T04:36:59.397Z,7.47
2018-07-26T04:39:27.565Z,7.20
2018-07-26T04:41:55.940Z,7.13
2018-07-26T04:44:24.126Z,7.87
2018-07-26T04:46:52.289Z,8.10
2018-07-26T04:49:20.568Z,7.70
2018-07-26T04:51:49.045Z,8.60
2018-07-26T04:54:17.121Z,8.40
2018-07-26T04:56:45.488Z,7.90
2018-07-26T04:59:13.753Z,8.37
2018-07-26T05:01:41.922Z,8.60
2018-07-26T05:04:10.221Z,7.30
2018-07-26T05:06:38.502Z,7.70
2018-07-26T05:09:08.331Z,8.47
2018-07-26T05:11:36.781Z,8.30
2018-07-26T05:14:05.162Z,9.57
2018-07-26T05:16:33.653Z,8.30
2018-07-26T05:19:02.073Z,8.53
2018-07-26T05:21:30.756Z,8.13
2018-07-26T05:23:59.293Z,8.47
2018-07-26T05:26:27.665Z,8.63
2018-07-26T05:28:55.838Z,9.10
2018-07-26T05:31:24.214Z,9.20
2018-07-26T05:33:52.606Z,9.00
2018-07-26T05:36:20.977Z,9.40
2018-07-26T05:38:49.146Z,8.30
2018-07-26T05:41:17.520Z,9.23
2018-07-26T05:43:45.804Z,9.37
2018-07-26T05:46:14.291Z,9.77
2018-07-26T05:48:42.653Z,9.83
2018-07-26T05:51:11.145Z,10.03
2018-07-26T05:53:39.514Z,9.90
2018-07-26T05:56:07.992Z,10.63
2018-07-26T05:58:36.373Z,9.47
2018-07-26T06:01:04.757Z,10.07
2018-07-26T06:03:33.125Z,11.07
2018-07-26T06:06:01.619Z,13.90
2018-07-26T06:08:29.982Z,11.23
2018-07-26T06:10:58.301Z,9.93
2018-07-26T06:13:26.741Z,10.23
2018-07-26T06:15:55.028Z,9.77
2018-07-26T06:18:22.861Z,10.70
2018-07-26T06:20:51.158Z,10.10
2018-07-26T06:23:19.533Z,9.87
2018-07-26T06:25:48.229Z,9.63
2018-07-26T06:28:16.651Z,10.30
2018-07-26T06:30:44.874Z,10.13
2018-07-26T06:33:13.366Z,9.67
2018-07-26T06:35:41.535Z,9.50
2018-07-26T06:38:09.910Z,10.30
2018-07-26T06:40:38.177Z,9.87
2018-07-26T06:43:06.453Z,8.70
2018-07-26T06:45:34.842Z,9.07
2018-07-26T06:48:03.120Z,9.87
2018-07-26T06:50:31.485Z,8.73
2018-07-26T06:53:00.008Z,8.50
2018-07-26T06:55:28.341Z,8.90
2018-07-26T06:57:56.817Z,9.53
2018-07-26T07:00:25.202Z,9.43
2018-07-26T07:02:53.614Z,9.20
2018-07-26T07:05:21.957Z,9.40
2018-07-26T07:07:50.228Z,9.10
2018-07-26T07:10:18.621Z,9.20
2018-07-26T07:12:46.792Z,8.97
2018-07-26T07:15:15.178Z,8.93
2018-07-26T07:17:43.428Z,8.37
2018-07-26T07:20:12.035Z,8.40
2018-07-26T07:22:40.293Z,8.60
2018-07-26T07:25:08.682Z,8.10
2018-07-26T07:27:36.561Z,8.37
2018-07-26T07:30:06.861Z,8.53
2018-07-26T07:32:35.146Z,8.07
2018-07-26T07:35:03.426Z,8.00
2018-07-26T07:37:31.798Z,8.33
2018-07-26T07:40:00.083Z,7.90
2018-07-26T07:42:28.349Z,8.47
2018-07-26T07:44:56.734Z,8.17
2018-07-26T07:47:25.150Z,7.67
2018-07-26T07:49:53.473Z,8.30
2018-07-26T07:52:21.948Z,8.80
2018-07-26T07:54:50.237Z,7.63
2018-07-26T07:57:43.424Z,8.40
2018-07-26T08:02:22.655Z,8.30
2018-07-26T08:08:00.512Z,7.80
2018-07-26T08:10:49.302Z,8.30
2018-07-26T08:21:33.619Z,7.30
2018-07-26T08:24:01.893Z,7.17
2018-07-26T08:26:30.067Z,7.10
2018-07-26T08:28:58.448Z,7.30
2018-07-26T08:31:26.824Z,7.60
2018-07-26T08:33:55.134Z,7.37
2018-07-26T08:36:23.354Z,7.83
2018-07-26T08:38:51.756Z,6.77
2018-07-26T08:41:20.287Z,7.70
2018-07-26T08:43:48.712Z,7.20
2018-07-26T08:46:17.081Z,7.00
2018-07-26T08:48:45.359Z,6.93
2018-07-26T08:51:13.650Z,6.63
2018-07-26T08:53:41.914Z,6.57
2018-07-26T08:56:10.184Z,6.47
2018-07-26T08:58:38.460Z,7.00
2018-07-26T09:01:06.839Z,6.40
2018-07-26T09:03:35.257Z,6.20
2018-07-26T09:06:03.702Z,6.57
2018-07-26T09:08:31.873Z,5.97
2018-07-26T09:11:00.308Z,6.67
2018-07-26T09:13:28.487Z,6.40
2018-07-26T09:15:56.727Z,5.97
2018-07-26T09:18:24.974Z,6.10
2018-07-26T09:20:53.282Z,6.07
2018-07-26T09:23:21.729Z,5.80
2018-07-26T09:25:49.996Z,6.33
2018-07-26T09:28:18.369Z,5.83
2018-07-26T09:30:46.566Z,5.77
2018-07-26T09:33:14.988Z,6.07
2018-07-26T09:35:42.850Z,6.30
2018-07-26T09:38:10.966Z,5.83
2018-07-26T09:40:39.474Z,5.73
2018-07-26T09:43:07.702Z,6.30
2018-07-26T09:45:35.893Z,5.70
2018-07-26T09:48:04.298Z,5.63
2018-07-26T09:50:32.545Z,6.07
2018-07-26T09:53:00.926Z,6.10
2018-07-26T09:55:29.467Z,5.40
2018-07-26T09:57:57.790Z,5.80
2018-07-26T10:00:31.510Z,5.73
2018-07-26T10:02:59.770Z,5.80
2018-07-26T10:05:27.872Z,6.20
2018-07-26T10:07:56.928Z,5.33
2018-07-26T10:10:25.401Z,5.70
2018-07-26T10:12:53.489Z,5.90
2018-07-26T10:15:21.788Z,5.17
2018-07-26T10:17:50.027Z,10.13
2018-07-26T10:20:18.579Z,5.77
2018-07-26T10:22:46.894Z,7.43
2018-07-26T10:25:15.389Z,6.30
2018-07-26T10:27:43.704Z,5.70
2018-07-26T10:30:12.026Z,6.23
2018-07-26T10:32:40.285Z,6.33
2018-07-26T10:35:08.877Z,6.50
2018-07-26T10:37:37.167Z,6.60
2018-07-26T10:40:05.551Z,6.47
2018-07-26T10:42:33.806Z,6.13
2018-07-26T10:45:01.678Z,6.83
2018-07-26T10:47:29.933Z,6.00
2018-07-26T10:49:58.404Z,6.20
2018-07-26T10:52:26.714Z,6.37
2018-07-26T10:54:55.198Z,6.47
2018-07-26T10:57:23.570Z,6.50
2018-07-26T10:59:52.056Z,6.20
2018-07-26T11:02:20.327Z,6.60
2018-07-26T11:04:48.603Z,6.93
2018-07-26T11:07:16.765Z,7.00
2018-07-26T11:09:45.060Z,7.07
2018-07-26T11:12:13.317Z,6.27
2018-07-26T11:14:41.499Z,7.03
2018-07-26T11:17:09.874Z,6.50
2018-07-26T11:19:38.049Z,6.87
2018-07-26T11:22:06.321Z,6.30
2018-07-26T11:24:34.707Z,6.43
2018-07-26T11:27:02.992Z,6.97
2018-07-26T11:29:31.403Z,7.43
2018-07-26T11:31:59.311Z,6.57
2018-07-26T11:34:27.700Z,6.73
2018-07-26T11:36:56.080Z,6.80
2018-07-26T11:39:24.350Z,6.77
2018-07-26T11:41:52.735Z,7.60
2018-07-26T11:44:21.176Z,7.60
2018-07-26T11:46:49.689Z,6.57
2018-07-26T11:49:18.070Z,7.80
2018-07-26T11:51:46.445Z,8.07
2018-07-26T11:54:14.720Z,7.77
2018-07-26T11:56:43.198Z,9.13
2018-07-26T11:59:12.133Z,8.67
2018-07-26T12:01:40.381Z,9.30
2018-07-26T12:04:08.837Z,8.13
2018-07-26T12:06:37.213Z,8.87
2018-07-26T12:09:08.218Z,10.40
2018-07-26T12:11:36.533Z,10.10
2018-07-26T12:14:04.910Z,11.77
2018-07-26T12:16:33.293Z,12.30
2018-07-26T12:19:01.580Z,10.17
2018-07-26T12:21:29.951Z,10.57
2018-07-26T12:23:58.332Z,8.70
2018-07-26T12:26:26.801Z,8.93
2018-07-26T12:28:55.077Z,8.77
2018-07-26T12:31:23.509Z,9.60
2018-07-26T12:33:51.841Z,9.70
2018-07-26T12:36:20.015Z,10.33
2018-07-26T12:38:48.496Z,9.63
2018-07-26T12:41:16.771Z,11.27
2018-07-26T12:43:45.154Z,9.53
2018-07-26T12:46:13.430Z,11.47
2018-07-26T12:48:41.689Z,12.60
2018-07-26T12:51:09.976Z,9.47
2018-07-26T12:53:38.321Z,8.80
2018-07-26T12:56:06.730Z,9.27
2018-07-26T12:58:35.317Z,9.33
2018-07-26T13:01:03.790Z,8.10
2018-07-26T13:03:32.065Z,9.87
2018-07-26T13:06:00.471Z,9.73
2018-07-26T13:08:28.786Z,9.50
2018-07-26T13:10:56.886Z,9.47
2018-07-26T13:13:25.170Z,9.93
2018-07-26T13:15:53.550Z,10.47
2018-07-26T13:18:21.924Z,10.60
2018-07-26T13:20:50.302Z,9.37
2018-07-26T13:23:18.579Z,9.47
2018-07-26T13:25:47.174Z,9.33
2018-07-26T13:28:15.629Z,9.83
2018-07-26T13:30:44.075Z,9.90
2018-07-26T13:33:13.034Z,10.40
2018-07-26T13:35:41.649Z,9.23
2018-07-26T13:38:10.186Z,10.93
2018-07-26T13:40:38.809Z,9.00
2018-07-26T13:43:07.245Z,10.57
2018-07-26T13:45:35.834Z,10.03
2018-07-26T13:48:04.534Z,8.93
2018-07-26T13:50:33.108Z,9.13
2018-07-26T13:53:01.942Z,13.17
2018-07-26T13:55:31.026Z,11.07
2018-07-26T13:57:59.554Z,11.17
2018-07-26T14:00:27.831Z,8.90
2018-07-26T14:02:56.409Z,9.97
2018-07-26T14:05:24.687Z,9.00
2018-07-26T14:07:53.067Z,9.00
2018-07-26T14:10:21.275Z,12.03
2018-07-26T14:12:49.605Z,13.70
2018-07-26T14:15:18.223Z,9.70
2018-07-26T14:17:46.582Z,16.43
2018-07-26T14:20:14.990Z,21.77
2018-07-26T14:22:43.432Z,15.07
2018-07-26T14:25:11.838Z,12.87
2018-07-26T14:27:40.029Z,11.80
2018-07-26T14:30:08.826Z,10.83
2018-07-26T14:32:37.346Z,13.13
2018-07-26T14:35:06.047Z,10.87
2018-07-26T14:37:34.582Z,11.83
2018-07-26T14:40:03.002Z,12.73
2018-07-26T14:42:30.996Z,11.43
2018-07-26T14:44:59.352Z,9.90
2018-07-26T14:47:27.817Z,13.83
2018-07-26T14:49:55.749Z,11.60
2018-07-26T14:52:24.277Z,10.40
2018-07-26T14:54:52.662Z,10.50
2018-07-26T14:57:20.710Z,13.80
2018-07-26T14:59:48.997Z,9.20
2018-07-26T15:02:17.265Z,14.20
2018-07-26T15:04:45.564Z,9.73
2018-07-26T15:07:14.020Z,8.77
2018-07-26T15:09:42.372Z,7.33
2018-07-26T15:12:10.786Z,9.93
2018-07-26T15:14:38.953Z,12.87
2018-07-26T15:17:07.544Z,7.60
2018-07-26T15:19:36.065Z,11.40
2018-07-26T15:22:04.698Z,7.23
2018-07-26T15:24:33.886Z,10.30
2018-07-26T15:27:02.291Z,11.63
2018-07-26T15:29:30.551Z,6.27
2018-07-26T15:31:58.835Z,7.67
2018-07-26T15:34:27.193Z,8.57
2018-07-26T15:36:55.495Z,6.53
2018-07-26T15:39:23.761Z,6.03
2018-07-26T15:41:52.243Z,6.37
2018-07-26T15:44:20.412Z,6.60
2018-07-26T15:46:48.777Z,7.27
2018-07-26T15:49:17.074Z,7.07
2018-07-26T15:51:45.041Z,6.20
2018-07-26T15:54:13.521Z,6.07
2018-07-26T15:56:41.785Z,7.67
2018-07-26T15:59:09.710Z,6.30
2018-07-26T16:01:38.239Z,7.83
2018-07-26T16:04:06.466Z,6.60
2018-07-26T16:06:34.683Z,7.13
2018-07-26T16:09:02.966Z,7.77
2018-07-26T16:11:30.946Z,13.10
2018-07-26T16:13:58.853Z,13.90
2018-07-26T16:16:26.765Z,17.17
2018-07-26T16:18:54.709Z,16.43
2018-07-26T16:21:22.601Z,12.03
2018-07-26T16:23:50.498Z,12.73
2018-07-26T16:26:18.417Z,8.57
2018-07-26T16:28:46.462Z,8.30
2018-07-26T16:31:14.400Z,7.77
2018-07-26T16:33:42.514Z,7.43
2018-07-26T16:36:10.815Z,6.97
2018-07-26T16:38:39.395Z,6.20
2018-07-26T16:41:07.682Z,6.03
2018-07-26T16:43:36.168Z,5.67
2018-07-26T16:46:04.306Z,6.90
2018-07-26T16:48:32.819Z,6.13
2018-07-26T16:51:01.191Z,6.57
2018-07-26T16:53:29.254Z,7.03
2018-07-26T16:55:57.639Z,9.50
2018-07-26T16:58:26.321Z,8.40
2018-07-26T17:00:54.591Z,8.47
2018-07-26T17:03:22.978Z,7.23
2018-07-26T17:05:51.359Z,8.00
2018-07-26T17:08:19.729Z,5.90
2018-07-26T17:10:47.913Z,6.80
2018-07-26T17:13:16.382Z,6.93
2018-07-26T17:24:28.130Z,6.53
2018-07-26T17:26:56.406Z,8.27
2018-07-26T17:29:24.886Z,6.57
2018-07-26T17:31:53.050Z,6.87
2018-07-26T17:34:21.328Z,5.63
2018-07-26T17:40:30.972Z,6.10
2018-07-26T17:47:25.647Z,5.93
2018-07-26T17:59:51.752Z,6.97
2018-07-26T18:08:56.240Z,5.93
2018-07-26T18:11:25.457Z,6.13
2018-07-26T18:13:53.933Z,6.77
2018-07-26T18:16:22.824Z,7.10
2018-07-26T18:18:51.165Z,7.40
2018-07-26T18:21:19.790Z,7.17
2018-07-26T18:23:48.070Z,7.37
2018-07-26T18:26:16.623Z,7.20
2018-07-26T18:28:44.929Z,6.90
2018-07-26T18:31:13.307Z,8.50
2018-07-26T18:33:41.369Z,7.77
2018-07-26T18:36:09.654Z,7.90
2018-07-26T18:38:37.930Z,9.13
2018-07-26T18:41:06.175Z,8.23
2018-07-26T18:43:34.494Z,8.13
2018-07-26T18:46:02.957Z,7.53
2018-07-26T18:48:31.228Z,7.70
2018-07-26T18:50:59.510Z,7.93
2018-07-26T18:53:27.889Z,7.73
2018-07-26T18:55:56.158Z,8.03
2018-07-26T18:58:24.433Z,8.17
2018-07-26T19:00:52.909Z,8.77
2018-07-26T19:03:21.405Z,9.33
2018-07-26T19:05:49.674Z,9.07
2018-07-26T19:08:18.158Z,9.60
2018-07-26T19:10:46.458Z,9.20
2018-07-26T19:13:14.810Z,9.20
2018-07-26T19:15:43.178Z,9.80
2018-07-26T19:18:11.470Z,9.87
2018-07-26T19:20:39.431Z,9.70
2018-07-26T19:23:07.802Z,9.50
2018-07-26T19:25:36.081Z,8.83
2018-07-26T19:42:17.017Z,7.53
2018-07-26T19:53:17.642Z,8.40
2018-07-26T19:56:05.617Z,7.50
2018-07-26T20:03:11.105Z,7.57
2018-07-26T20:06:20.333Z,7.30
2018-07-26T20:18:42.193Z,7.63
2018-07-26T20:29:08.955Z,7.33
2018-07-26T20:36:43.196Z,6.67
2018-07-26T20:39:41.799Z,7.37
2018-07-26T20:42:59.752Z,7.33
2018-07-26T20:50:43.565Z,7.60
2018-07-26T20:53:52.610Z,8.80
2018-07-26T20:56:59.578Z,8.23
2018-07-26T21:03:27.680Z,7.70
2018-07-26T21:06:35.326Z,9.03
2018-07-26T21:09:41.959Z,9.80
2018-07-26T21:12:46.508Z,10.33
2018-07-26T21:15:46.894Z,10.20
2018-07-26T21:24:14.821Z,11.43
2018-07-26T21:27:03.026Z,11.70
2018-07-26T21:29:57.538Z,11.60
2018-07-26T21:33:06.977Z,11.53
2018-07-26T21:36:27.713Z,11.83
2018-07-26T21:48:29.624Z,10.90
2018-07-26T21:53:12.930Z,10.63
2018-07-26T21:59:08.348Z,11.00
2018-07-26T22:08:40.122Z,11.33
2018-07-26T22:11:51.115Z,10.57
2018-07-26T22:14:40.102Z,9.90
2018-07-26T22:18:13.254Z,10.47
2018-07-26T22:24:35.844Z,9.33
2018-07-26T22:27:29.659Z,9.50
2018-07-26T22:55:39.007Z,12.43
2018-07-26T23:11:13.779Z,12.47
2018-07-26T23:14:32.854Z,13.77
2018-07-26T23:17:17.618Z,13.40
2018-07-26T23:35:19.191Z,13.80
2018-07-26T23:41:28.046Z,14.67
2018-07-26T23:47:26.451Z,14.77
2018-07-26T23:53:11.177Z,15.50
